Terminal Aerodrome Forecast
Issued by NWS Shreveport, LA

Home | Current Version | Previous Version | Text Only | Print | Product List | Glossary On
Versions: 1 2 3 4 5 6 7 8 9 10 11 12
000
FTUS44 KSHV 290528
TAFGGG
TAF
KGGG 290528Z 2906/3006 16003KT P6SM SKC
     FM291400 24006KT P6SM SKC
     FM291700 25006KT P6SM SCT050
     FM300000 VRB04KT P6SM FEW140=

USA.gov is the U.S. government's official web portal to all federal, state and local government web resources and services.